KBAD/BAD METAR and TAF weather

Enter ICAO airport designator
Station Type Date Time Source
KBAD METAR 2023/02/04 02:55 UTC NOAA

KBAD 040255Z AUTO 00000KT 10SM CLR 06/01 A3051 RMK AO2 SLPNO T00550005 50000


Station Type Date Time Source
KBAD Decoded METAR 2023/02/04 02:55 UTC NOAA

Barksdale Air Force Base, LA, United States (KBAD) 32-30N 093-40W
Feb 03, 2023 - 09:55 PM EST / 2023.02.04 0255 UTC
Wind: Calm:0
Visibility: 10 mile(s):0
Sky conditions: clear
Temperature: 41.9 F (5.5 C)
Dew Point: 32.9 F (0.5 C)
Relative Humidity: 70%
Pressure (altimeter): 30.51 in. Hg (1033 hPa)
Pressure tendency: 0.00 inches (0.0 hPa) higher than three hours ago
ob: KBAD 040255Z AUTO 00000KT 10SM CLR 06/01 A3051 RMK AO2 SLPNO T00550005 50000
cycle: 3

Station Type Date Time Source
KBAD TAF 2023/02/03 23:27 UTC NOAA

TAF
AMD KBAD 032319Z 0323/0502 35008KT 9999 SKC QNH3046INS WND VRB03KT AFT 0401
BECMG 0415/0416 16010KT 9999 BKN200 QNH3029INS
BECMG 0500/0501 15006KT 9999 SCT250 QNH3028INS TX11/0323Z TNM01/0413Z LAST NO
AMDS AFT 0400 NEXT 0412

Example: see airport list